createdAt,value
2019-03-17T00:01:28.973Z,98436.02
2019-03-17T00:04:03.414Z,98433.61
2019-03-17T00:06:37.943Z,98423.92
2019-03-17T00:09:12.218Z,98428.50
2019-03-17T00:11:46.720Z,98425.02
2019-03-17T00:14:21.062Z,98415.18
2019-03-17T00:16:55.628Z,98408.56
2019-03-17T00:19:30.079Z,98420.83
2019-03-17T00:22:04.615Z,98421.95
2019-03-17T00:24:40.184Z,98420.80
2019-03-17T00:27:18.473Z,98422.96
2019-03-17T00:29:52.813Z,98418.02
2019-03-17T00:32:27.322Z,98411.91
2019-03-17T00:35:01.666Z,98417.55
2019-03-17T00:37:36.292Z,98415.23
2019-03-17T00:40:11.237Z,98413.17
2019-03-17T00:42:45.726Z,98408.41
2019-03-17T00:45:20.246Z,98409.92
2019-03-17T00:47:54.861Z,98405.80
2019-03-17T00:50:29.307Z,98404.25
2019-03-17T00:53:03.818Z,98396.11
2019-03-17T00:55:38.261Z,98394.39
2019-03-17T00:58:12.632Z,98390.69
2019-03-17T01:00:47.448Z,98397.68
2019-03-17T01:03:22.268Z,98391.20
2019-03-17T01:05:56.761Z,98384.98
2019-03-17T01:08:31.166Z,98377.31
2019-03-17T01:11:05.518Z,98379.69
2019-03-17T01:13:40.004Z,98372.93
2019-03-17T01:16:14.436Z,98370.20
2019-03-17T01:18:49.026Z,98369.02
2019-03-17T01:21:23.394Z,98371.66
2019-03-17T01:23:57.898Z,98367.52
2019-03-17T01:26:32.396Z,98364.21
2019-03-17T01:29:06.761Z,98365.95
2019-03-17T01:31:41.269Z,98371.68
2019-03-17T01:34:15.838Z,98365.69
2019-03-17T01:36:50.241Z,98366.96
2019-03-17T01:39:24.812Z,98365.88
2019-03-17T01:41:59.318Z,98367.95
2019-03-17T01:44:33.759Z,98364.27
2019-03-17T01:47:08.339Z,98368.42
2019-03-17T01:49:42.767Z,98365.17
2019-03-17T01:52:17.253Z,98369.45
2019-03-17T01:54:51.796Z,98364.27
2019-03-17T01:57:27.683Z,98359.92
2019-03-17T02:00:02.123Z,98363.19
2019-03-17T02:02:36.595Z,98359.31
2019-03-17T02:05:21.464Z,98343.83
2019-03-17T02:07:47.282Z,98352.70
2019-03-17T02:10:21.765Z,98344.72
2019-03-17T02:12:56.340Z,98345.39
2019-03-17T02:15:30.666Z,98349.59
2019-03-17T02:18:05.131Z,98350.62
2019-03-17T02:20:39.631Z,98353.94
2019-03-17T02:23:14.090Z,98356.30
2019-03-17T02:25:48.596Z,98353.40
2019-03-17T02:28:23.079Z,98360.86
2019-03-17T02:30:57.611Z,98364.73
2019-03-17T02:33:32.085Z,98368.47
2019-03-17T02:36:06.581Z,98369.84
2019-03-17T02:38:41.197Z,98367.47
2019-03-17T02:41:15.822Z,98371.72
2019-03-17T02:43:50.471Z,98366.61
2019-03-17T02:46:24.960Z,98365.02
2019-03-17T02:48:59.330Z,98363.69
2019-03-17T02:51:33.755Z,98365.82
2019-03-17T02:54:08.126Z,98370.34
2019-03-17T02:56:42.615Z,98360.87
2019-03-17T02:59:17.062Z,98357.05
2019-03-17T03:01:51.487Z,98356.09
2019-03-17T03:04:25.934Z,98351.38
2019-03-17T03:07:00.806Z,98351.93
2019-03-17T03:09:35.319Z,98341.53
2019-03-17T03:12:09.791Z,98337.59
2019-03-17T03:14:44.310Z,98340.70
2019-03-17T03:17:18.942Z,98334.28
2019-03-17T03:19:53.387Z,98335.20
2019-03-17T03:22:27.802Z,98333.16
2019-03-17T03:25:02.079Z,98331.08
2019-03-17T03:27:36.569Z,98334.05
2019-03-17T03:30:13.038Z,98328.45
2019-03-17T03:32:47.528Z,98325.95
2019-03-17T03:35:22.074Z,98322.80
2019-03-17T03:37:57.085Z,98315.51
2019-03-17T03:40:31.547Z,98324.63
2019-03-17T03:43:06.025Z,98317.78
2019-03-17T03:45:40.497Z,98317.50
2019-03-17T03:48:14.982Z,98315.09
2019-03-17T03:50:50.129Z,98311.61
2019-03-17T03:53:24.597Z,98308.34
2019-03-17T03:55:58.999Z,98305.83
2019-03-17T03:58:33.296Z,98306.26
2019-03-17T04:01:07.690Z,98298.03
2019-03-17T04:03:43.605Z,98294.50
2019-03-17T04:06:26.574Z,98284.13
2019-03-17T04:08:54.288Z,98284.80
2019-03-17T04:11:28.884Z,98281.95
2019-03-17T04:14:03.247Z,98285.09
2019-03-17T04:16:37.726Z,98279.34
2019-03-17T04:19:12.382Z,98282.00
2019-03-17T04:21:46.848Z,98284.20
2019-03-17T04:24:21.554Z,98282.45
2019-03-17T04:26:56.026Z,98277.87
2019-03-17T04:29:30.973Z,98265.31
2019-03-17T04:32:05.652Z,98274.06
2019-03-17T04:34:40.114Z,98261.42
2019-03-17T04:37:14.737Z,98258.47
2019-03-17T04:39:49.198Z,98263.20
2019-03-17T04:42:23.714Z,98271.70
2019-03-17T04:44:58.161Z,98268.25
2019-03-17T04:47:32.669Z,98261.06
2019-03-17T04:50:08.562Z,98265.60
2019-03-17T04:52:43.025Z,98266.12
2019-03-17T04:55:18.180Z,98260.33
2019-03-17T04:57:52.804Z,98258.05
2019-03-17T05:00:27.459Z,98264.95
2019-03-17T05:03:01.854Z,98255.69
2019-03-17T05:05:36.424Z,98264.64
2019-03-17T05:08:10.873Z,98266.64
2019-03-17T05:10:46.250Z,98269.36
2019-03-17T05:13:20.723Z,98269.80
2019-03-17T05:15:55.232Z,98272.16
2019-03-17T05:18:29.789Z,98275.53
2019-03-17T05:21:04.383Z,98272.88
2019-03-17T05:23:38.929Z,98273.68
2019-03-17T05:26:13.531Z,98273.91
2019-03-17T05:28:47.981Z,98276.83
2019-03-17T05:31:22.802Z,98268.27
2019-03-17T05:33:57.257Z,98267.89
2019-03-17T05:36:32.315Z,98265.87
2019-03-17T05:39:07.623Z,98269.34
2019-03-17T05:41:41.985Z,98257.72
2019-03-17T05:44:16.745Z,98259.99
2019-03-17T05:46:51.196Z,98255.36
2019-03-17T05:49:25.567Z,98243.75
2019-03-17T05:52:00.018Z,98249.19
2019-03-17T05:54:34.545Z,98251.89
2019-03-17T05:57:09.006Z,98248.98
2019-03-17T05:59:43.347Z,98252.62
2019-03-17T06:02:17.891Z,98253.45
2019-03-17T06:04:52.240Z,98255.69
2019-03-17T06:07:26.725Z,98256.80
2019-03-17T06:10:01.237Z,98254.41
2019-03-17T06:12:35.698Z,98255.77
2019-03-17T06:15:11.652Z,98252.45
2019-03-17T06:17:46.090Z,98258.77
2019-03-17T06:20:20.660Z,98245.20
2019-03-17T06:22:55.141Z,98242.52
2019-03-17T06:25:29.674Z,98242.52
2019-03-17T06:28:04.299Z,98243.64
2019-03-17T06:30:39.074Z,98243.59
2019-03-17T06:33:14.649Z,98244.01
2019-03-17T06:35:49.063Z,98248.87
2019-03-17T06:38:23.664Z,98240.83
2019-03-17T06:40:58.050Z,98243.48
2019-03-17T06:43:32.585Z,98245.98
2019-03-17T06:46:07.053Z,98243.64
2019-03-17T06:48:41.528Z,98244.95
2019-03-17T06:51:16.008Z,98237.38
2019-03-17T06:53:56.385Z,98236.96
2019-03-17T06:56:26.713Z,98235.94
2019-03-17T06:59:01.170Z,98229.52
2019-03-17T07:01:35.625Z,98230.99
2019-03-17T07:04:09.935Z,98222.29
2019-03-17T07:06:45.356Z,98227.42
2019-03-17T07:09:19.871Z,98224.13
2019-03-17T07:11:54.308Z,98217.89
2019-03-17T07:14:30.419Z,98225.10
2019-03-17T07:17:04.885Z,98224.24
2019-03-17T07:19:40.240Z,98228.42
2019-03-17T07:22:14.622Z,98224.88
2019-03-17T07:24:49.044Z,98228.28
2019-03-17T07:27:23.564Z,98232.63
2019-03-17T07:29:57.959Z,98239.76
2019-03-17T07:32:33.032Z,98230.25
2019-03-17T07:35:07.906Z,98228.03
2019-03-17T07:37:42.340Z,98232.98
2019-03-17T07:40:16.853Z,98232.16
2019-03-17T07:42:51.426Z,98234.73
2019-03-17T07:45:25.874Z,98236.67
2019-03-17T07:48:01.128Z,98232.91
2019-03-17T07:50:35.595Z,98225.37
2019-03-17T07:53:10.815Z,98218.72
2019-03-17T07:55:45.284Z,98226.03
2019-03-17T07:58:19.603Z,98227.62
2019-03-17T08:00:54.094Z,98224.02
2019-03-17T08:03:28.530Z,98225.11
2019-03-17T08:06:03.108Z,98218.53
2019-03-17T08:08:37.709Z,98216.66
2019-03-17T08:11:12.298Z,98218.56
2019-03-17T08:13:46.773Z,98218.19
2019-03-17T08:16:21.270Z,98226.17
2019-03-17T08:18:55.620Z,98226.81
2019-03-17T08:21:30.284Z,98227.27
2019-03-17T08:24:04.790Z,98226.23
2019-03-17T08:26:40.876Z,98226.55
2019-03-17T08:29:15.375Z,98225.87
2019-03-17T08:31:49.752Z,98225.58
2019-03-17T08:34:24.204Z,98217.57
2019-03-17T08:36:58.550Z,98220.33
2019-03-17T08:39:33.176Z,98222.49
2019-03-17T08:42:07.689Z,98215.84
2019-03-17T08:44:42.136Z,98215.22
2019-03-17T08:47:16.650Z,98219.61
2019-03-17T09:31:11.128Z,98226.73
2019-03-17T09:35:59.468Z,98226.95
2019-03-17T09:38:33.108Z,98226.41
2019-03-17T09:41:06.632Z,98217.30
2019-03-17T09:43:40.210Z,98213.83
2019-03-17T09:46:13.680Z,98215.69
2019-03-17T09:48:47.130Z,98211.69
2019-03-17T09:51:20.826Z,98218.55
2019-03-17T09:53:54.360Z,98215.41
2019-03-17T09:56:27.959Z,98210.61
2019-03-17T09:59:01.521Z,98213.81
2019-03-17T10:01:34.998Z,98207.41
2019-03-17T10:04:08.505Z,98206.04
2019-03-17T10:06:42.079Z,98207.66
2019-03-17T10:09:15.672Z,98204.45
2019-03-17T10:11:49.063Z,98202.83
2019-03-17T10:14:22.582Z,98204.19
2019-03-17T10:16:56.049Z,98200.30
2019-03-17T10:19:29.594Z,98201.25
2019-03-17T10:22:03.059Z,98190.24
2019-03-17T10:24:36.668Z,98191.84
2019-03-17T10:27:10.444Z,98191.31
2019-03-17T10:29:43.964Z,98191.88
2019-03-17T10:32:17.386Z,98186.25
2019-03-17T10:34:51.037Z,98180.08
2019-03-17T10:37:24.515Z,98187.03
2019-03-17T10:39:58.068Z,98176.33
2019-03-17T10:42:34.091Z,98173.10
2019-03-17T10:45:08.679Z,98170.94
2019-03-17T10:47:42.175Z,98170.92
2019-03-17T10:50:16.994Z,98166.11
2019-03-17T10:52:50.579Z,98164.22
2019-03-17T10:55:24.136Z,98169.00
2019-03-17T10:57:57.716Z,98159.38
2019-03-17T11:00:31.306Z,98147.81
2019-03-17T11:03:04.881Z,98138.97
2019-03-17T11:05:39.382Z,98134.33
2019-03-17T11:08:12.946Z,98131.83
2019-03-17T11:10:51.958Z,98122.70
2019-03-17T11:13:24.287Z,98118.28
2019-03-17T11:15:57.631Z,98120.61
2019-03-17T11:18:33.592Z,98111.03
2019-03-17T11:21:02.162Z,98111.28
2019-03-17T11:23:35.016Z,98100.81
2019-03-17T11:26:06.118Z,98107.12
2019-03-17T11:28:37.213Z,98107.47
2019-03-17T11:31:10.203Z,98106.83
2019-03-17T11:33:44.299Z,98112.23
2019-03-17T11:36:15.469Z,98105.13
2019-03-17T11:38:46.499Z,98107.34
2019-03-17T11:41:17.782Z,98098.17
2019-03-17T11:43:48.905Z,98090.27
2019-03-17T11:46:19.986Z,98087.51
2019-03-17T11:48:52.988Z,98085.28
2019-03-17T11:51:24.235Z,98089.77
2019-03-17T11:53:55.419Z,98080.20
2019-03-17T11:56:26.423Z,98071.80
2019-03-17T11:58:57.568Z,98075.45
2019-03-17T12:01:28.601Z,98055.89
2019-03-17T12:03:59.775Z,98057.58
2019-03-17T12:06:30.927Z,98049.19
2019-03-17T12:09:04.379Z,98052.90
2019-03-17T12:11:35.010Z,98050.39
2019-03-17T12:14:06.291Z,98031.12
2019-03-17T12:16:37.193Z,98038.92
2019-03-17T12:19:08.497Z,98032.02
2019-03-17T12:21:39.525Z,98033.38
2019-03-17T12:24:10.643Z,98036.14
2019-03-17T12:26:41.681Z,98028.20
2019-03-17T12:29:12.840Z,98022.62
2019-03-17T12:31:43.857Z,98028.09
2019-03-17T12:34:15.117Z,98019.05
2019-03-17T12:36:46.189Z,98015.78
2019-03-17T12:39:17.230Z,98017.45
2019-03-17T12:41:48.294Z,98010.69
2019-03-17T12:44:19.267Z,98003.59
2019-03-17T12:46:50.275Z,98011.30
2019-03-17T12:49:21.451Z,98015.18
2019-03-17T12:51:55.439Z,98005.30
2019-03-17T12:54:26.595Z,98003.79
2019-03-17T12:56:57.781Z,98001.09
2019-03-17T12:59:28.902Z,98001.81
2019-03-17T13:02:00.043Z,98003.23
2019-03-17T13:04:31.092Z,98001.69
2019-03-17T13:07:02.190Z,97998.69
2019-03-17T13:09:33.160Z,98004.58
2019-03-17T13:12:04.291Z,97990.88
2019-03-17T13:14:35.568Z,97983.25
2019-03-17T13:17:06.566Z,97989.15
2019-03-17T13:19:37.661Z,97980.14
2019-03-17T13:22:08.766Z,97975.02
2019-03-17T13:24:39.889Z,97969.27
2019-03-17T13:27:10.899Z,97967.49
2019-03-17T13:29:41.930Z,97967.05
2019-03-17T13:32:13.029Z,97974.50
2019-03-17T13:34:44.191Z,97965.39
2019-03-17T13:37:15.483Z,97964.05
2019-03-17T13:39:46.580Z,97960.41
2019-03-17T13:42:17.699Z,97965.67
2019-03-17T13:44:48.901Z,97964.05
2019-03-17T13:47:19.811Z,97969.55
2019-03-17T13:49:50.858Z,97968.95
2019-03-17T13:52:21.801Z,97967.77
2019-03-17T13:54:52.839Z,97972.45
2019-03-17T13:57:23.965Z,97978.11
2019-03-17T13:59:54.983Z,97960.28
2019-03-17T14:02:26.268Z,97969.95
2019-03-17T14:04:57.293Z,97978.42
2019-03-17T14:07:28.425Z,97988.22
2019-03-17T14:09:59.499Z,97979.27
2019-03-17T14:12:30.547Z,97977.28
2019-03-17T14:15:01.726Z,97976.67
2019-03-17T14:17:32.731Z,97973.65
2019-03-17T14:20:07.624Z,97976.86
2019-03-17T14:22:38.755Z,97979.38
2019-03-17T14:25:16.035Z,97985.59
2019-03-17T14:27:47.057Z,97985.34
2019-03-17T14:30:18.217Z,97974.30
2019-03-17T14:32:49.644Z,97981.12
2019-03-17T14:35:21.645Z,97970.55
2019-03-17T14:37:53.296Z,97976.33
2019-03-17T14:40:24.451Z,97985.27
2019-03-17T14:42:55.886Z,97969.39
2019-03-17T14:45:26.959Z,97972.67
2019-03-17T14:47:58.128Z,97971.66
2019-03-17T14:50:29.245Z,97978.39
2019-03-17T14:53:00.948Z,97976.42
2019-03-17T14:55:32.233Z,97976.80
2019-03-17T14:58:03.303Z,97977.80
2019-03-17T15:00:34.215Z,97974.21
2019-03-17T15:03:05.359Z,97992.12
2019-03-17T15:05:36.481Z,97992.43
2019-03-17T15:08:07.564Z,97993.26
2019-03-17T15:10:38.758Z,97999.71
2019-03-17T15:13:09.801Z,97997.42
2019-03-17T15:15:41.000Z,98004.25
2019-03-17T15:18:12.118Z,98001.07
2019-03-17T15:20:43.154Z,97995.51
2019-03-17T15:23:14.160Z,97995.08
2019-03-17T15:25:45.239Z,97992.67
2019-03-17T15:28:16.251Z,97988.30
2019-03-17T15:31:00.505Z,97990.00
2019-03-17T15:33:20.335Z,98001.69
2019-03-17T15:35:51.541Z,97989.59
2019-03-17T15:38:22.649Z,97994.77
2019-03-17T15:40:53.851Z,98003.85
2019-03-17T15:43:24.960Z,97999.97
2019-03-17T15:45:55.978Z,98004.38
2019-03-17T15:48:27.126Z,98007.20
2019-03-17T15:50:58.137Z,98003.09
2019-03-17T15:53:29.233Z,98006.20
2019-03-17T15:56:00.409Z,98002.25
2019-03-17T15:58:31.510Z,98010.53
2019-03-17T16:01:02.529Z,98006.01
2019-03-17T16:03:33.589Z,97999.63
2019-03-17T16:06:04.606Z,98009.41
2019-03-17T16:08:35.729Z,98007.39
2019-03-17T16:11:06.729Z,98007.38
2019-03-17T16:13:37.893Z,98007.27
2019-03-17T16:16:08.922Z,98007.27
2019-03-17T16:18:39.969Z,98004.78
2019-03-17T16:21:10.884Z,98003.27
2019-03-17T16:23:42.003Z,98007.41
2019-03-17T16:26:13.008Z,98007.20
2019-03-17T16:28:44.160Z,98000.86
2019-03-17T16:31:15.164Z,97999.36
2019-03-17T16:33:46.247Z,98004.55
2019-03-17T16:36:17.321Z,98002.47
2019-03-17T16:38:48.351Z,98005.14
2019-03-17T16:41:19.394Z,98001.17
2019-03-17T16:48:41.113Z,97987.77
2019-03-17T16:51:14.697Z,97978.72
2019-03-17T16:53:48.486Z,97980.40
2019-03-17T16:56:22.109Z,97965.73
2019-03-17T16:58:55.834Z,97978.14
2019-03-17T17:01:29.421Z,97963.28
2019-03-17T17:04:03.281Z,97969.86
2019-03-17T17:06:36.920Z,97971.72
2019-03-17T17:09:10.778Z,97967.13
2019-03-17T17:11:55.845Z,97966.55
2019-03-17T17:14:19.687Z,97977.40
2019-03-17T17:16:53.202Z,97969.03
2019-03-17T17:19:26.676Z,97965.32
2019-03-17T17:22:00.288Z,97968.07
2019-03-17T17:24:33.899Z,97973.92
2019-03-17T17:27:07.408Z,97970.52
2019-03-17T17:29:42.485Z,97962.52
2019-03-17T17:32:15.963Z,97966.61
2019-03-17T17:34:49.504Z,97960.94
2019-03-17T17:37:23.165Z,97957.95
2019-03-17T17:39:56.616Z,97949.67
2019-03-17T17:42:30.259Z,97943.85
2019-03-17T17:45:06.598Z,97950.36
2019-03-17T17:47:40.017Z,97943.46
2019-03-17T17:50:16.169Z,97943.74
2019-03-17T17:52:49.808Z,97942.13
2019-03-17T17:55:23.406Z,97945.42
2019-03-17T17:57:57.019Z,97934.57
2019-03-17T18:00:30.685Z,97939.19
2019-03-17T18:03:04.706Z,97939.22
2019-03-17T18:05:38.347Z,97933.06
2019-03-17T18:08:12.724Z,97927.77
2019-03-17T18:10:46.498Z,97926.19
2019-03-17T18:13:20.055Z,97937.48
2019-03-17T18:15:53.928Z,97936.73
2019-03-17T18:18:27.853Z,97933.13
2019-03-17T18:21:02.145Z,97930.78
2019-03-17T18:23:35.708Z,97919.89
2019-03-17T18:26:09.879Z,97921.08
2019-03-17T18:28:44.032Z,97922.10
2019-03-17T18:31:18.315Z,97919.98
2019-03-17T18:33:52.272Z,97928.56
2019-03-17T18:36:26.132Z,97922.96
2019-03-17T18:39:00.295Z,97909.56
2019-03-17T18:41:34.700Z,97915.16
2019-03-17T18:44:08.800Z,97918.00
2019-03-17T18:46:42.902Z,97920.09
2019-03-17T18:49:17.119Z,97929.26
2019-03-17T18:51:51.312Z,97936.07
2019-03-17T18:54:25.539Z,97936.91
2019-03-17T18:56:59.953Z,97932.36
2019-03-17T18:59:34.064Z,97924.31
2019-03-17T19:02:08.080Z,97928.63
2019-03-17T19:04:42.119Z,97943.61
2019-03-17T19:07:16.302Z,97951.05
2019-03-17T19:09:50.186Z,97954.80
2019-03-17T19:12:24.018Z,97952.03
2019-03-17T19:14:58.018Z,97956.41
2019-03-17T19:17:31.827Z,97958.75
2019-03-17T19:20:09.205Z,97959.20
2019-03-17T19:22:43.524Z,97958.76
2019-03-17T19:25:18.654Z,97962.49
2019-03-17T19:27:52.630Z,97960.86
2019-03-17T19:30:26.760Z,97963.06
2019-03-17T19:33:00.806Z,97960.06
2019-03-17T19:35:35.136Z,97959.25
2019-03-17T19:38:09.341Z,97960.81
2019-03-17T19:40:43.559Z,97970.06
2019-03-17T19:43:17.866Z,97957.53
2019-03-17T19:45:53.321Z,97947.72
2019-03-17T19:48:27.662Z,97946.98
2019-03-17T19:51:01.975Z,97950.60
2019-03-17T19:53:36.057Z,97947.46
2019-03-17T19:56:10.305Z,97945.42
2019-03-17T19:58:44.544Z,97946.52
2019-03-17T20:01:18.818Z,97940.53
2019-03-17T20:03:54.557Z,97945.22
2019-03-17T20:06:28.666Z,97936.53
2019-03-17T20:09:05.715Z,97940.73
2019-03-17T20:11:38.857Z,97943.19
2019-03-17T20:14:13.073Z,97940.83
2019-03-17T20:16:47.179Z,97938.80
2019-03-17T20:19:21.179Z,97932.05
2019-03-17T20:21:56.428Z,97935.71
2019-03-17T20:24:30.430Z,97928.06
2019-03-17T20:27:04.840Z,97926.23
2019-03-17T20:29:39.068Z,97918.48
2019-03-17T20:32:13.186Z,97926.81
2019-03-17T20:34:47.542Z,97923.57
2019-03-17T20:37:22.124Z,97924.80
2019-03-17T20:39:56.136Z,97921.24
2019-03-17T20:42:30.239Z,97922.52
2019-03-17T20:45:05.373Z,97918.67
2019-03-17T20:47:39.394Z,97915.59
2019-03-17T20:50:15.577Z,97913.50
2019-03-17T20:52:49.673Z,97914.92
2019-03-17T20:55:23.783Z,97924.84
2019-03-17T20:57:59.428Z,97920.87
2019-03-17T21:00:33.548Z,97922.77
2019-03-17T21:03:08.067Z,97919.17
2019-03-17T21:05:43.406Z,97923.05
2019-03-17T21:08:17.737Z,97924.59
2019-03-17T21:10:51.851Z,97925.93
2019-03-17T21:13:25.852Z,97934.08
2019-03-17T21:15:59.859Z,97943.59
2019-03-17T21:18:34.075Z,97935.92
2019-03-17T21:21:08.303Z,97936.03
2019-03-17T21:23:42.284Z,97932.64
2019-03-17T21:26:16.203Z,97930.88
2019-03-17T21:28:50.111Z,97928.23
2019-03-17T21:31:23.895Z,97938.45
2019-03-17T21:33:57.837Z,97934.87
2019-03-17T21:36:31.824Z,97927.70
2019-03-17T21:39:06.777Z,97926.77
2019-03-17T21:41:40.443Z,97926.52
2019-03-17T21:44:14.064Z,97927.79
2019-03-17T21:46:47.565Z,97926.14
2019-03-17T21:49:21.235Z,97923.70
2019-03-17T21:51:54.857Z,97918.85
2019-03-17T21:54:28.418Z,97922.57
2019-03-17T21:57:02.014Z,97920.86
2019-03-17T21:59:35.631Z,97916.73
2019-03-17T22:02:13.113Z,97913.61
2019-03-17T22:04:44.672Z,97913.50
2019-03-17T22:07:18.317Z,97916.19
2019-03-17T22:09:51.887Z,97904.36
2019-03-17T22:12:25.683Z,97911.00
2019-03-17T22:14:59.272Z,97905.78
2019-03-17T22:17:32.997Z,97897.92
2019-03-17T22:20:11.665Z,97901.09
2019-03-17T22:22:45.108Z,97902.77
2019-03-17T22:25:18.708Z,97912.59
2019-03-17T22:27:52.419Z,97906.27
2019-03-17T22:30:26.126Z,97911.68
2019-03-17T22:32:59.867Z,97913.13
2019-03-17T22:35:33.449Z,97908.59
2019-03-17T22:38:06.991Z,97911.48
2019-03-17T22:40:40.746Z,97913.30
2019-03-17T22:43:14.243Z,97911.52
2019-03-17T22:45:47.895Z,97915.71
2019-03-17T22:48:21.303Z,97915.09
2019-03-17T22:50:54.800Z,97905.36
2019-03-17T22:53:28.402Z,97904.98
2019-03-17T22:56:01.841Z,97899.11
2019-03-17T22:58:35.428Z,97904.47
2019-03-17T23:01:09.212Z,97905.41
2019-03-17T23:03:43.131Z,97911.77
2019-03-17T23:06:16.781Z,97906.19
2019-03-17T23:08:50.400Z,97898.50
2019-03-17T23:11:24.184Z,97902.34
2019-03-17T23:13:57.812Z,97904.92
2019-03-17T23:16:31.437Z,97909.28
2019-03-17T23:19:05.158Z,97909.98
2019-03-17T23:21:38.816Z,97911.69
2019-03-17T23:24:12.577Z,97919.30
2019-03-17T23:26:46.301Z,97921.02
2019-03-17T23:29:20.081Z,97927.77
2019-03-17T23:31:53.836Z,97940.48
2019-03-17T23:34:27.979Z,97968.72
2019-03-17T23:37:01.711Z,98012.34
2019-03-17T23:39:35.354Z,98027.13
2019-03-17T23:42:09.158Z,98044.65
2019-03-17T23:44:48.798Z,98053.50
2019-03-17T23:47:18.354Z,98058.52
2019-03-17T23:49:51.968Z,98059.55
2019-03-17T23:52:25.735Z,98090.45
2019-03-17T23:54:59.284Z,98109.67
2019-03-17T23:57:33.476Z,98125.64
